Stations météo

réclame
Mon MeteoGroup
Zumaya, Espagne (8026): Température de l'air & dewpoint: 19.02.2018 10:00:00 - 25.02.2018 10:00:00 (CET)Zumaya, Espagne (8026): Vitesse du vent & gusts: 19.02.2018 10:00:00 - 25.02.2018 10:00:00 (CET)Zumaya, Espagne (8026): Direction du vent: 19.02.2018 10:00:00 - 25.02.2018 10:00:00 (CET)Zumaya, Espagne (8026): Quantités de précipitations: 19.02.2018 10:00:00 - 25.02.2018 10:00:00 (CET)
Date & Time tt [°C] td [°C] ff [km/h] ff [knt] fx [km/h] fx [knt] dd rr [mm]
25.02.2018 10:00:00 - - - - - - - -
25.02.2018 09:00:00 3,1 2,3 15 8 19 10 S 0,0
25.02.2018 08:00:00 1,6 0,6 15 8 19 10 S 0,0
25.02.2018 07:00:00 2,0 1,1 15 8 17 9 S -
25.02.2018 06:00:00 2,2 1,3 12 7 16 9 S 0,0
25.02.2018 05:00:00 2,2 1,3 13 7 16 9 S 0,0
25.02.2018 04:00:00 2,4 1,5 13 7 18 10 S 0,0
25.02.2018 03:00:00 2,8 1,7 14 7 18 10 S 0,0
25.02.2018 02:00:00 3,0 1,9 14 8 16 9 S 0,0
25.02.2018 01:00:00 3,3 2,1 14 7 16 9 S -
25.02.2018 00:00:00 3,2 1,9 13 7 16 8 S 0,0
24.02.2018 23:00:00 3,6 1,9 13 7 16 9 S 0,0
24.02.2018 22:00:00 4,1 2,1 11 6 15 8 S 0,0
24.02.2018 21:00:00 4,6 2,1 11 6 13 7 S 0,0
24.02.2018 20:00:00 5,5 1,7 8 5 12 6 S 0,0
24.02.2018 19:00:00 6,8 1,1 6 3 12 7 SSE -
24.02.2018 18:00:00 8,3 1,5 7 4 20 11 ESE 0,0
24.02.2018 17:00:00 8,7 1,3 11 6 19 10 NE 0,0
24.02.2018 16:00:00 8,7 1,1 12 6 21 11 NE 0,0
24.02.2018 15:00:00 9,2 1,9 10 6 19 10 NE 0,0
24.02.2018 14:00:00 8,9 1,3 11 6 19 11 NE 0,0
24.02.2018 13:00:00 8,1 1,3 13 7 19 11 NNE -
24.02.2018 12:00:00 7,4 0,6 11 6 19 10 NE 0,0
24.02.2018 11:00:00 8,1 1,1 5 3 12 7 NE 0,0
24.02.2018 10:00:00 6,7 3,2 5 3 10 5 S 0,0
24.02.2018 09:00:00 3,4 1,9 8 4 10 6 S 0,0
24.02.2018 08:00:00 1,9 -0,3 8 5 11 6 S 0,0
24.02.2018 07:00:00 2,6 0,0 9 5 13 7 S -
24.02.2018 06:00:00 3,5 0,0 7 4 13 7 S 0,0
24.02.2018 05:00:00 4,3 0,6 7 4 12 7 S 0,0
24.02.2018 04:00:00 4,7 1,3 9 5 12 7 S 0,0
24.02.2018 03:00:00 4,8 1,5 8 5 11 6 SSE 0,0
24.02.2018 02:00:00 5,0 1,3 7 4 9 5 S 0,0
24.02.2018 01:00:00 4,8 1,1 6 3 10 5 S -
24.02.2018 00:00:00 5,0 0,9 7 4 9 5 SSE 0,0
23.02.2018 23:00:00 5,0 1,1 8 4 11 6 SSE 0,0
23.02.2018 22:00:00 5,2 0,9 6 3 10 5 S 0,0
23.02.2018 21:00:00 5,3 1,1 9 5 11 6 SSE 0,0
23.02.2018 20:00:00 5,2 0,6 6 4 9 5 S 0,0
23.02.2018 19:00:00 5,7 0,2 4 2 12 6 SE -
23.02.2018 18:00:00 5,9 0,0 3 2 19 10 NE 0,0
23.02.2018 17:00:00 6,2 0,2 10 6 20 11 NNE 0,0
23.02.2018 16:00:00 6,3 0,0 12 6 26 14 N 0,0
23.02.2018 15:00:00 6,6 0,6 14 8 27 15 NNE 0,0
23.02.2018 14:00:00 6,5 1,3 16 8 28 15 NNE 0,0
23.02.2018 13:00:00 6,6 1,1 18 10 31 17 N -
23.02.2018 12:00:00 6,9 1,5 16 9 31 17 N 0,0
23.02.2018 11:00:00 6,9 1,7 17 9 30 16 N 0,0
23.02.2018 10:00:00 4,2 1,5 8 4 12 7 S 0,0
23.02.2018 09:00:00 2,8 1,1 11 6 15 8 S 0,0
23.02.2018 08:00:00 1,5 -0,3 11 6 14 8 S 0,0
23.02.2018 07:00:00 1,6 -0,5 12 7 15 8 S -
23.02.2018 06:00:00 1,8 -0,7 12 7 15 8 S 0,0
23.02.2018 05:00:00 2,3 -0,7 12 7 15 8 S 0,0
23.02.2018 04:00:00 2,8 -1,2 11 6 14 8 S 0,0
23.02.2018 03:00:00 3,6 -1,4 8 5 13 7 S 0,0
23.02.2018 02:00:00 4,7 -1,7 11 6 23 13 SSE 0,0
23.02.2018 01:00:00 6,8 -0,7 14 8 28 15 E -
23.02.2018 00:00:00 7,7 -0,3 18 10 35 19 ENE 0,0
22.02.2018 23:00:00 8,2 0,9 27 14 39 21 NNE 0,0
22.02.2018 22:00:00 8,4 0,6 22 12 40 21 N 0,0
22.02.2018 21:00:00 8,5 1,3 22 12 37 20 N 0,0
22.02.2018 20:00:00 8,2 1,1 18 10 32 18 N 0,0
22.02.2018 19:00:00 7,8 0,6 19 10 28 15 NW -
22.02.2018 18:00:00 - - - - - - - -
22.02.2018 17:00:00 - - - - - - - -
22.02.2018 16:00:00 - - - - - - - -
22.02.2018 15:00:00 - - - - - - - -
22.02.2018 14:00:00 - - - - - - - -
22.02.2018 13:00:00 - - - - - - - -
22.02.2018 12:00:00 - - - - - - - -
22.02.2018 11:00:00 - - - - - - - -
22.02.2018 10:00:00 - - - - - - - -
22.02.2018 09:00:00 - - - - - - - -
22.02.2018 08:00:00 - - - - - - - -
22.02.2018 07:00:00 - - - - - - - -
22.02.2018 06:00:00 - - - - - - - -
22.02.2018 05:00:00 - - - - - - - -
22.02.2018 04:00:00 - - - - - - - -
22.02.2018 03:00:00 - - - - - - - -
22.02.2018 02:00:00 - - - - - - - -
22.02.2018 01:00:00 - - - - - - - -
22.02.2018 00:00:00 - - - - - - - -
21.02.2018 23:00:00 - - - - - - - -
21.02.2018 22:00:00 - - - - - - - -
21.02.2018 21:00:00 - - - - - - - -
21.02.2018 20:00:00 - - - - - - - -
21.02.2018 19:00:00 8,4 2,7 23 12 34 18 N -
21.02.2018 18:00:00 8,5 2,5 20 11 29 16 N 0,0
21.02.2018 17:00:00 9,0 2,3 16 8 26 14 N 0,0
21.02.2018 16:00:00 9,1 2,3 17 9 26 14 NNE 0,0
21.02.2018 15:00:00 9,5 2,1 20 11 31 17 NNE 0,0
21.02.2018 14:00:00 9,0 2,3 22 12 38 21 NNE 0,0
21.02.2018 13:00:00 8,4 1,7 34 18 54 29 NNE -
21.02.2018 12:00:00 8,8 2,9 37 20 59 32 N 0,0
21.02.2018 11:00:00 8,9 3,2 39 21 58 31 NNE 0,0
21.02.2018 10:00:00 8,8 3,6 48 26 63 34 NNE 0,0
21.02.2018 09:00:00 9,1 5,1 42 23 - - NNE -
21.02.2018 08:00:00 - - - - - - - -
21.02.2018 07:00:00 - - - - - - - -
21.02.2018 06:00:00 - - - - - - - -
21.02.2018 05:00:00 - - - - - - - -
21.02.2018 04:00:00 - - - - - - - -
21.02.2018 03:00:00 - - - - - - - -
21.02.2018 02:00:00 - - - - - - - -
21.02.2018 01:00:00 - - - - - - - -
21.02.2018 00:00:00 - - - - - - - -
20.02.2018 23:00:00 - - - - - - - -
20.02.2018 22:00:00 - - - - - - - -
20.02.2018 21:00:00 - - - - - - - -
20.02.2018 20:00:00 - - - - - - - -
20.02.2018 19:00:00 - - - - - - - -
20.02.2018 18:00:00 - - - - - - - -
20.02.2018 17:00:00 - - - - - - - -
20.02.2018 16:00:00 - - - - - - - -
20.02.2018 15:00:00 12,3 10,0 30 16 50 27 NW 0,0
20.02.2018 14:00:00 12,3 10,0 34 18 51 28 NW 0,0
20.02.2018 13:00:00 12,3 10,2 34 18 46 25 NW -
20.02.2018 12:00:00 - - - - - - - -
20.02.2018 11:00:00 11,3 10,2 39 21 53 29 NW 0,2
20.02.2018 10:00:00 - - - - - - - -
20.02.2018 09:00:00 - - - - - - - -
20.02.2018 08:00:00 - - - - - - - -
20.02.2018 07:00:00 - - - - - - - -
20.02.2018 06:00:00 - - - - - - - -
20.02.2018 05:00:00 - - - - - - - -
20.02.2018 04:00:00 - - - - - - - -
20.02.2018 03:00:00 - - - - - - - -
20.02.2018 02:00:00 - - - - - - - -
20.02.2018 01:00:00 - - - - - - - -
20.02.2018 00:00:00 - - - - - - - -
19.02.2018 23:00:00 - - - - - - - -
19.02.2018 22:00:00 - - - - - - - -
19.02.2018 21:00:00 - - - - - - - -
19.02.2018 20:00:00 - - - - - - - -
19.02.2018 19:00:00 - - - - - - - -
19.02.2018 18:00:00 - - - - - - - -
19.02.2018 17:00:00 - - - - - - - -
19.02.2018 16:00:00 - - - - - - - -
19.02.2018 15:00:00 - - - - - - - -
19.02.2018 14:00:00 - - - - - - - -
19.02.2018 13:00:00 - - - - - - - -
19.02.2018 12:00:00 - - - - - - - -
19.02.2018 11:00:00 - - - - - - - -
19.02.2018 10:00:00 - - - - - - - -

tt = Température de l'air
td = dewpoint
ff = Vitesse du vent
fx = gusts
dd = Direction du vent
rr = Quantités de précipitations

stations d'obs. à proximité